sensor_id;sensor_type;location;lat;lon;timestamp;pressure;altitude;pressure_sealevel;temperature;humidity
72685;BME280;61365;52.162;4.500;2023-08-08T00:01:45;101387.09;;;18.19;69.86
72685;BME280;61365;52.162;4.500;2023-08-08T00:04:11;101380.41;;;18.02;70.71
72685;BME280;61365;52.162;4.500;2023-08-08T00:06:37;101387.41;;;18.05;69.72
72685;BME280;61365;52.162;4.500;2023-08-08T00:09:03;101386.50;;;18.06;68.11
72685;BME280;61365;52.162;4.500;2023-08-08T00:11:30;101379.38;;;18.08;67.34
72685;BME280;61365;52.162;4.500;2023-08-08T00:13:56;101385.66;;;18.05;64.99
72685;BME280;61365;52.162;4.500;2023-08-08T00:16:23;101390.34;;;17.92;66.03
72685;BME280;61365;52.162;4.500;2023-08-08T00:18:49;101395.78;;;17.86;64.79
72685;BME280;61365;52.162;4.500;2023-08-08T00:21:16;101377.97;;;17.91;64.99
72685;BME280;61365;52.162;4.500;2023-08-08T00:23:42;101383.31;;;17.90;63.63
72685;BME280;61365;52.162;4.500;2023-08-08T00:26:08;101378.63;;;18.03;64.69
72685;BME280;61365;52.162;4.500;2023-08-08T00:28:34;101373.38;;;17.98;65.57
72685;BME280;61365;52.162;4.500;2023-08-08T00:31:01;101375.97;;;18.03;65.34
72685;BME280;61365;52.162;4.500;2023-08-08T00:33:27;101370.69;;;18.01;63.63
72685;BME280;61365;52.162;4.500;2023-08-08T00:35:53;101377.84;;;17.97;63.67
72685;BME280;61365;52.162;4.500;2023-08-08T00:38:19;101371.88;;;17.88;64.05
72685;BME280;61365;52.162;4.500;2023-08-08T00:40:45;101380.06;;;17.77;66.12
72685;BME280;61365;52.162;4.500;2023-08-08T00:43:11;101373.03;;;17.76;66.03
72685;BME280;61365;52.162;4.500;2023-08-08T00:45:37;101370.19;;;17.83;64.90
72685;BME280;61365;52.162;4.500;2023-08-08T00:48:05;101376.50;;;17.78;64.98
72685;BME280;61365;52.162;4.500;2023-08-08T00:50:32;101370.38;;;17.76;67.01
72685;BME280;61365;52.162;4.500;2023-08-08T00:52:58;101374.53;;;17.88;65.32
72685;BME280;61365;52.162;4.500;2023-08-08T00:55:24;101370.97;;;17.89;66.17
72685;BME280;61365;52.162;4.500;2023-08-08T00:57:50;101370.06;;;17.90;66.33
72685;BME280;61365;52.162;4.500;2023-08-08T01:00:16;101367.47;;;17.85;65.53
72685;BME280;61365;52.162;4.500;2023-08-08T01:02:42;101362.50;;;17.71;64.04
72685;BME280;61365;52.162;4.500;2023-08-08T01:05:09;101365.84;;;17.79;64.10
72685;BME280;61365;52.162;4.500;2023-08-08T01:10:26;101361.41;;;17.80;65.54
72685;BME280;61365;52.162;4.500;2023-08-08T01:12:56;101372.38;;;17.64;64.88
72685;BME280;61365;52.162;4.500;2023-08-08T01:15:32;101366.75;;;17.78;66.13
72685;BME280;61365;52.162;4.500;2023-08-08T01:18:05;101365.91;;;17.76;64.30
72685;BME280;61365;52.162;4.500;2023-08-08T01:20:32;101359.69;;;17.77;64.20
72685;BME280;61365;52.162;4.500;2023-08-08T01:23:04;101351.84;;;17.73;65.59
72685;BME280;61365;52.162;4.500;2023-08-08T01:25:57;101365.66;;;17.89;64.44
72685;BME280;61365;52.162;4.500;2023-08-08T01:28:24;101362.09;;;17.88;66.18
72685;BME280;61365;52.162;4.500;2023-08-08T01:30:50;101358.66;;;17.84;65.46
72685;BME280;61365;52.162;4.500;2023-08-08T01:33:17;101363.97;;;17.84;64.66
72685;BME280;61365;52.162;4.500;2023-08-08T01:35:45;101363.75;;;17.94;65.70
72685;BME280;61365;52.162;4.500;2023-08-08T01:38:35;101359.69;;;17.77;65.24
72685;BME280;61365;52.162;4.500;2023-08-08T01:41:06;101363.13;;;17.82;64.17
72685;BME280;61365;52.162;4.500;2023-08-08T01:43:34;101348.69;;;17.94;63.74
72685;BME280;61365;52.162;4.500;2023-08-08T01:46:02;101345.97;;;17.97;62.58
72685;BME280;61365;52.162;4.500;2023-08-08T01:48:29;101350.69;;;17.84;63.96
72685;BME280;61365;52.162;4.500;2023-08-08T01:50:56;101352.44;;;17.85;63.94
72685;BME280;61365;52.162;4.500;2023-08-08T01:53:22;101349.66;;;17.90;62.72
72685;BME280;61365;52.162;4.500;2023-08-08T01:55:48;101348.06;;;17.83;62.03
72685;BME280;61365;52.162;4.500;2023-08-08T01:58:15;101346.28;;;17.83;63.29
72685;BME280;61365;52.162;4.500;2023-08-08T02:00:41;101342.69;;;17.86;62.32
72685;BME280;61365;52.162;4.500;2023-08-08T02:03:09;101336.34;;;17.92;62.13
72685;BME280;61365;52.162;4.500;2023-08-08T02:05:35;101332.13;;;17.83;60.77
72685;BME280;61365;52.162;4.500;2023-08-08T02:08:02;101330.94;;;17.96;63.86
72685;BME280;61365;52.162;4.500;2023-08-08T02:10:28;101325.91;;;17.84;61.70
72685;BME280;61365;52.162;4.500;2023-08-08T02:12:54;101331.94;;;17.92;61.52
72685;BME280;61365;52.162;4.500;2023-08-08T02:15:20;101331.22;;;17.84;60.86
72685;BME280;61365;52.162;4.500;2023-08-08T02:17:46;101324.34;;;17.77;62.10
72685;BME280;61365;52.162;4.500;2023-08-08T02:20:13;101326.16;;;17.75;61.18
72685;BME280;61365;52.162;4.500;2023-08-08T02:22:39;101334.44;;;17.61;61.44
72685;BME280;61365;52.162;4.500;2023-08-08T02:25:05;101338.13;;;17.53;61.44
72685;BME280;61365;52.162;4.500;2023-08-08T02:27:31;101336.25;;;17.59;62.59
72685;BME280;61365;52.162;4.500;2023-08-08T02:29:57;101340.88;;;17.49;63.58
72685;BME280;61365;52.162;4.500;2023-08-08T02:32:23;101340.22;;;17.39;63.02
72685;BME280;61365;52.162;4.500;2023-08-08T02:34:50;101329.72;;;17.33;63.43
72685;BME280;61365;52.162;4.500;2023-08-08T02:37:16;101326.97;;;17.37;63.85
72685;BME280;61365;52.162;4.500;2023-08-08T02:39:43;101330.28;;;17.49;64.94
72685;BME280;61365;52.162;4.500;2023-08-08T02:42:10;101326.06;;;17.38;64.13
72685;BME280;61365;52.162;4.500;2023-08-08T02:44:36;101324.28;;;17.39;63.90
72685;BME280;61365;52.162;4.500;2023-08-08T02:47:02;101328.16;;;17.22;65.47
72685;BME280;61365;52.162;4.500;2023-08-08T02:49:28;101329.81;;;17.28;65.09
72685;BME280;61365;52.162;4.500;2023-08-08T02:51:55;101322.00;;;17.22;64.48
72685;BME280;61365;52.162;4.500;2023-08-08T02:54:21;101326.41;;;17.21;67.54
72685;BME280;61365;52.162;4.500;2023-08-08T02:56:47;101318.66;;;17.12;66.13
72685;BME280;61365;52.162;4.500;2023-08-08T02:59:13;101308.00;;;17.14;68.05
72685;BME280;61365;52.162;4.500;2023-08-08T03:01:39;101311.50;;;17.16;67.72
72685;BME280;61365;52.162;4.500;2023-08-08T03:04:05;101308.97;;;17.11;66.44
72685;BME280;61365;52.162;4.500;2023-08-08T03:06:32;101303.78;;;17.05;68.35
72685;BME280;61365;52.162;4.500;2023-08-08T03:08:58;101308.00;;;17.14;67.50
72685;BME280;61365;52.162;4.500;2023-08-08T03:11:24;101308.06;;;17.10;67.45
72685;BME280;61365;52.162;4.500;2023-08-08T03:13:50;101315.78;;;17.23;65.92
72685;BME280;61365;52.162;4.500;2023-08-08T03:16:16;101312.53;;;17.08;66.70
72685;BME280;61365;52.162;4.500;2023-08-08T03:18:42;101314.44;;;17.02;65.87
72685;BME280;61365;52.162;4.500;2023-08-08T03:21:08;101306.53;;;17.00;67.43
72685;BME280;61365;52.162;4.500;2023-08-08T03:23:34;101306.72;;;16.88;67.92
72685;BME280;61365;52.162;4.500;2023-08-08T03:26:00;101305.09;;;16.80;68.56
72685;BME280;61365;52.162;4.500;2023-08-08T03:28:26;101299.72;;;16.85;68.96
72685;BME280;61365;52.162;4.500;2023-08-08T03:30:53;101299.84;;;16.79;68.57
72685;BME280;61365;52.162;4.500;2023-08-08T03:33:19;101298.25;;;16.69;68.52
72685;BME280;61365;52.162;4.500;2023-08-08T03:35:45;101294.69;;;16.71;69.26
72685;BME280;61365;52.162;4.500;2023-08-08T03:38:11;101299.25;;;16.64;69.67
72685;BME280;61365;52.162;4.500;2023-08-08T03:40:37;101295.81;;;16.58;70.50
72685;BME280;61365;52.162;4.500;2023-08-08T03:43:03;101289.72;;;16.52;70.26
72685;BME280;61365;52.162;4.500;2023-08-08T03:45:29;101284.31;;;16.60;70.23
72685;BME280;61365;52.162;4.500;2023-08-08T03:47:56;101289.66;;;16.57;70.36
72685;BME280;61365;52.162;4.500;2023-08-08T03:50:22;101286.16;;;16.55;70.01
72685;BME280;61365;52.162;4.500;2023-08-08T03:52:48;101292.06;;;16.71;70.17
72685;BME280;61365;52.162;4.500;2023-08-08T03:55:14;101279.81;;;16.64;69.32
72685;BME280;61365;52.162;4.500;2023-08-08T03:57:40;101278.88;;;16.66;70.27
72685;BME280;61365;52.162;4.500;2023-08-08T04:00:07;101280.53;;;16.72;68.05
72685;BME280;61365;52.162;4.500;2023-08-08T04:02:34;101277.00;;;16.72;68.39
72685;BME280;61365;52.162;4.500;2023-08-08T04:05:00;101283.22;;;16.71;66.96
72685;BME280;61365;52.162;4.500;2023-08-08T04:07:26;101282.53;;;16.61;67.23
72685;BME280;61365;52.162;4.500;2023-08-08T04:09:52;101279.97;;;16.56;66.72
72685;BME280;61365;52.162;4.500;2023-08-08T04:12:18;101284.25;;;16.63;67.81
72685;BME280;61365;52.162;4.500;2023-08-08T04:14:44;101277.97;;;16.67;68.09
72685;BME280;61365;52.162;4.500;2023-08-08T04:17:10;101284.09;;;16.70;65.99
72685;BME280;61365;52.162;4.500;2023-08-08T04:19:36;101287.66;;;16.70;66.43
72685;BME280;61365;52.162;4.500;2023-08-08T04:22:03;101285.06;;;16.65;65.77
72685;BME280;61365;52.162;4.500;2023-08-08T04:24:30;101277.28;;;16.58;67.40
72685;BME280;61365;52.162;4.500;2023-08-08T04:26:56;101282.47;;;16.64;68.59
72685;BME280;61365;52.162;4.500;2023-08-08T04:29:22;101278.75;;;16.73;68.31
72685;BME280;61365;52.162;4.500;2023-08-08T04:31:48;101275.16;;;16.77;65.22
72685;BME280;61365;52.162;4.500;2023-08-08T04:34:14;101277.53;;;16.91;65.83
72685;BME280;61365;52.162;4.500;2023-08-08T04:36:40;101285.53;;;16.88;64.62
72685;BME280;61365;52.162;4.500;2023-08-08T04:39:06;101284.44;;;17.00;64.08
72685;BME280;61365;52.162;4.500;2023-08-08T04:41:32;101283.13;;;17.19;63.86
72685;BME280;61365;52.162;4.500;2023-08-08T04:43:58;101281.75;;;17.42;63.94
72685;BME280;61365;52.162;4.500;2023-08-08T04:46:25;101285.69;;;17.63;63.96
72685;BME280;61365;52.162;4.500;2023-08-08T04:48:51;101294.69;;;17.58;64.41
72685;BME280;61365;52.162;4.500;2023-08-08T04:51:17;101297.28;;;17.59;64.48
72685;BME280;61365;52.162;4.500;2023-08-08T04:53:43;101298.78;;;17.71;65.15
72685;BME280;61365;52.162;4.500;2023-08-08T04:56:09;101295.72;;;18.26;63.88
72685;BME280;61365;52.162;4.500;2023-08-08T04:58:35;101294.50;;;18.39;59.91
72685;BME280;61365;52.162;4.500;2023-08-08T05:01:01;101300.69;;;18.71;59.12
72685;BME280;61365;52.162;4.500;2023-08-08T05:03:28;101301.13;;;18.89;60.21
72685;BME280;61365;52.162;4.500;2023-08-08T05:05:54;101299.09;;;18.99;58.75
72685;BME280;61365;52.162;4.500;2023-08-08T05:08:20;101295.66;;;18.62;58.31
72685;BME280;61365;52.162;4.500;2023-08-08T05:10:47;101291.09;;;18.33;59.10
72685;BME280;61365;52.162;4.500;2023-08-08T05:13:13;101291.09;;;18.34;59.30
72685;BME280;61365;52.162;4.500;2023-08-08T05:15:39;101292.38;;;18.52;56.95
72685;BME280;61365;52.162;4.500;2023-08-08T05:18:05;101295.13;;;18.49;57.82
72685;BME280;61365;52.162;4.500;2023-08-08T05:20:31;101292.13;;;19.25;57.54
72685;BME280;61365;52.162;4.500;2023-08-08T05:22:57;101292.00;;;19.58;56.17
72685;BME280;61365;52.162;4.500;2023-08-08T05:25:23;101288.69;;;19.78;53.95
72685;BME280;61365;52.162;4.500;2023-08-08T05:27:49;101294.63;;;19.88;56.40
72685;BME280;61365;52.162;4.500;2023-08-08T05:30:19;101302.13;;;20.03;55.53
72685;BME280;61365;52.162;4.500;2023-08-08T05:32:46;101299.59;;;20.25;54.37
72685;BME280;61365;52.162;4.500;2023-08-08T05:35:12;101289.13;;;19.64;56.36
72685;BME280;61365;52.162;4.500;2023-08-08T05:37:39;101286.38;;;19.95;55.30
72685;BME280;61365;52.162;4.500;2023-08-08T05:40:05;101285.63;;;20.69;53.01
72685;BME280;61365;52.162;4.500;2023-08-08T05:42:32;101287.84;;;20.82;53.00
72685;BME280;61365;52.162;4.500;2023-08-08T05:45:00;101291.34;;;20.84;53.61
72685;BME280;61365;52.162;4.500;2023-08-08T05:47:27;101299.59;;;21.25;51.90
72685;BME280;61365;52.162;4.500;2023-08-08T05:49:53;101303.50;;;21.17;54.49
72685;BME280;61365;52.162;4.500;2023-08-08T05:52:19;101297.88;;;20.50;52.41
72685;BME280;61365;52.162;4.500;2023-08-08T05:54:46;101292.72;;;20.69;51.54
72685;BME280;61365;52.162;4.500;2023-08-08T05:57:13;101296.88;;;20.52;54.68
72685;BME280;61365;52.162;4.500;2023-08-08T05:59:39;101300.25;;;20.83;51.86
72685;BME280;61365;52.162;4.500;2023-08-08T06:02:05;101301.25;;;20.80;52.02
72685;BME280;61365;52.162;4.500;2023-08-08T06:04:31;101293.50;;;21.68;48.56
72685;BME280;61365;52.162;4.500;2023-08-08T06:06:57;101305.63;;;21.30;50.61
72685;BME280;61365;52.162;4.500;2023-08-08T06:09:24;101303.63;;;21.36;50.29
72685;BME280;61365;52.162;4.500;2023-08-08T06:11:51;101303.75;;;22.01;51.91
72685;BME280;61365;52.162;4.500;2023-08-08T06:14:17;101312.34;;;22.30;48.17
72685;BME280;61365;52.162;4.500;2023-08-08T06:16:43;101304.03;;;22.15;51.86
72685;BME280;61365;52.162;4.500;2023-08-08T06:19:09;101306.94;;;22.52;48.81
72685;BME280;61365;52.162;4.500;2023-08-08T06:21:36;101306.88;;;22.74;49.06
72685;BME280;61365;52.162;4.500;2023-08-08T06:24:02;101305.78;;;23.57;47.52
72685;BME280;61365;52.162;4.500;2023-08-08T06:26:28;101295.53;;;22.88;49.01
72685;BME280;61365;52.162;4.500;2023-08-08T06:28:54;101302.53;;;23.50;46.39
72685;BME280;61365;52.162;4.500;2023-08-08T06:31:20;101302.16;;;23.19;47.36
72685;BME280;61365;52.162;4.500;2023-08-08T06:33:47;101306.09;;;23.31;47.42
72685;BME280;61365;52.162;4.500;2023-08-08T06:36:14;101303.03;;;23.95;45.78
72685;BME280;61365;52.162;4.500;2023-08-08T06:38:40;101304.50;;;24.20;43.46
72685;BME280;61365;52.162;4.500;2023-08-08T06:41:06;101304.69;;;23.42;46.20
72685;BME280;61365;52.162;4.500;2023-08-08T06:43:32;101303.75;;;23.98;46.29
72685;BME280;61365;52.162;4.500;2023-08-08T06:45:58;101302.97;;;24.14;45.23
72685;BME280;61365;52.162;4.500;2023-08-08T06:48:24;101300.75;;;24.40;43.49
72685;BME280;61365;52.162;4.500;2023-08-08T06:50:51;101301.75;;;22.89;48.08
72685;BME280;61365;52.162;4.500;2023-08-08T06:53:17;101292.59;;;22.94;47.02
72685;BME280;61365;52.162;4.500;2023-08-08T06:55:43;101293.84;;;23.26;48.17
72685;BME280;61365;52.162;4.500;2023-08-08T06:58:09;101297.31;;;23.28;48.32
72685;BME280;61365;52.162;4.500;2023-08-08T07:00:36;101293.31;;;23.17;47.39
72685;BME280;61365;52.162;4.500;2023-08-08T07:03:02;101299.56;;;23.37;46.07
72685;BME280;61365;52.162;4.500;2023-08-08T07:05:28;101310.84;;;23.24;47.56
72685;BME280;61365;52.162;4.500;2023-08-08T07:07:55;101309.78;;;23.48;47.12
72685;BME280;61365;52.162;4.500;2023-08-08T07:10:21;101320.09;;;23.17;45.44
72685;BME280;61365;52.162;4.500;2023-08-08T07:12:47;101309.06;;;23.44;48.43
72685;BME280;61365;52.162;4.500;2023-08-08T07:15:14;101303.28;;;23.71;45.19
72685;BME280;61365;52.162;4.500;2023-08-08T07:17:40;101305.50;;;23.80;46.86
72685;BME280;61365;52.162;4.500;2023-08-08T07:20:06;101302.19;;;23.75;47.36
72685;BME280;61365;52.162;4.500;2023-08-08T07:22:34;101297.31;;;23.83;48.70
72685;BME280;61365;52.162;4.500;2023-08-08T07:25:00;101307.81;;;23.88;48.05
72685;BME280;61365;52.162;4.500;2023-08-08T07:27:26;101295.72;;;23.98;43.79
72685;BME280;61365;52.162;4.500;2023-08-08T07:29:53;101293.03;;;23.98;44.72
72685;BME280;61365;52.162;4.500;2023-08-08T07:32:19;101296.44;;;24.37;45.30
72685;BME280;61365;52.162;4.500;2023-08-08T07:34:45;101295.72;;;23.98;46.16
72685;BME280;61365;52.162;4.500;2023-08-08T07:37:13;101287.22;;;24.08;46.26
72685;BME280;61365;52.162;4.500;2023-08-08T07:39:40;101295.72;;;23.98;46.16
72685;BME280;61365;52.162;4.500;2023-08-08T07:42:06;101287.16;;;23.73;45.28
72685;BME280;61365;52.162;4.500;2023-08-08T07:44:32;101282.06;;;24.03;45.01
72685;BME280;61365;52.162;4.500;2023-08-08T07:47:00;101286.75;;;23.24;46.97
72685;BME280;61365;52.162;4.500;2023-08-08T07:49:26;101288.84;;;23.56;48.19
72685;BME280;61365;52.162;4.500;2023-08-08T07:51:52;101281.53;;;23.02;48.01
72685;BME280;61365;52.162;4.500;2023-08-08T07:54:18;101291.78;;;22.92;47.95
72685;BME280;61365;52.162;4.500;2023-08-08T07:56:44;101286.97;;;23.58;48.01
72685;BME280;61365;52.162;4.500;2023-08-08T07:59:10;101290.50;;;23.20;49.48
72685;BME280;61365;52.162;4.500;2023-08-08T08:01:37;101299.84;;;23.50;48.34
72685;BME280;61365;52.162;4.500;2023-08-08T08:04:03;101288.53;;;23.62;46.98
72685;BME280;61365;52.162;4.500;2023-08-08T08:06:29;101301.31;;;23.38;48.97
72685;BME280;61365;52.162;4.500;2023-08-08T08:08:55;101304.41;;;23.29;47.33
72685;BME280;61365;52.162;4.500;2023-08-08T08:11:21;101306.84;;;23.89;48.13
72685;BME280;61365;52.162;4.500;2023-08-08T08:13:47;101298.50;;;23.41;49.26
72685;BME280;61365;52.162;4.500;2023-08-08T08:16:14;101296.22;;;24.07;45.45
72685;BME280;61365;52.162;4.500;2023-08-08T08:18:40;101295.50;;;23.47;48.99
72685;BME280;61365;52.162;4.500;2023-08-08T08:21:06;101285.63;;;24.21;44.36
72685;BME280;61365;52.162;4.500;2023-08-08T08:23:32;101295.47;;;24.03;47.77
72685;BME280;61365;52.162;4.500;2023-08-08T08:25:58;101293.47;;;23.33;46.64
72685;BME280;61365;52.162;4.500;2023-08-08T08:28:25;101294.09;;;23.77;46.98
72685;BME280;61365;52.162;4.500;2023-08-08T08:30:52;101296.28;;;23.86;47.69
72685;BME280;61365;52.162;4.500;2023-08-08T08:33:18;101295.41;;;24.22;47.77
72685;BME280;61365;52.162;4.500;2023-08-08T08:35:44;101302.69;;;23.47;46.78
72685;BME280;61365;52.162;4.500;2023-08-08T08:38:11;101289.31;;;23.64;46.34
72685;BME280;61365;52.162;4.500;2023-08-08T08:40:38;101299.19;;;23.64;47.58
72685;BME280;61365;52.162;4.500;2023-08-08T08:43:07;101300.78;;;23.30;48.20
72685;BME280;61365;52.162;4.500;2023-08-08T08:45:37;101305.28;;;23.29;47.53
72685;BME280;61365;52.162;4.500;2023-08-08T08:48:10;101304.88;;;23.75;45.45
72685;BME280;61365;52.162;4.500;2023-08-08T08:50:37;101308.75;;;23.87;47.21
72685;BME280;61365;52.162;4.500;2023-08-08T08:53:05;101307.28;;;23.99;44.70
72685;BME280;61365;52.162;4.500;2023-08-08T08:55:31;101305.88;;;24.62;45.69
72685;BME280;61365;52.162;4.500;2023-08-08T08:57:58;101291.13;;;24.36;42.95
72685;BME280;61365;52.162;4.500;2023-08-08T09:00:24;101311.06;;;24.83;45.41
72685;BME280;61365;52.162;4.500;2023-08-08T09:02:51;101310.38;;;24.62;42.40
72685;BME280;61365;52.162;4.500;2023-08-08T09:05:21;101304.56;;;24.01;46.47
72685;BME280;61365;52.162;4.500;2023-08-08T09:07:48;101322.31;;;24.21;46.13
72685;BME280;61365;52.162;4.500;2023-08-08T09:10:18;101321.03;;;24.81;42.16
72685;BME280;61365;52.162;4.500;2023-08-08T09:12:45;101309.75;;;24.56;44.27
72685;BME280;61365;52.162;4.500;2023-08-08T09:15:11;101313.38;;;24.38;41.99
72685;BME280;61365;52.162;4.500;2023-08-08T09:17:42;101310.19;;;24.65;44.06
72685;BME280;61365;52.162;4.500;2023-08-08T09:20:11;101310.22;;;24.82;41.74
72685;BME280;61365;52.162;4.500;2023-08-08T09:22:38;101317.97;;;24.36;45.63
72685;BME280;61365;52.162;4.500;2023-08-08T09:25:05;101307.41;;;24.15;44.70
72685;BME280;61365;52.162;4.500;2023-08-08T09:27:34;101322.38;;;23.82;46.08
72685;BME280;61365;52.162;4.500;2023-08-08T09:30:00;101316.59;;;23.92;46.83
72685;BME280;61365;52.162;4.500;2023-08-08T09:32:29;101316.13;;;24.01;45.58
72685;BME280;61365;52.162;4.500;2023-08-08T09:34:56;101325.34;;;23.76;48.52
72685;BME280;61365;52.162;4.500;2023-08-08T09:37:23;101321.56;;;23.24;50.92
72685;BME280;61365;52.162;4.500;2023-08-08T09:40:00;101326.56;;;24.07;45.00
72685;BME280;61365;52.162;4.500;2023-08-08T09:42:31;101334.09;;;23.99;46.79
72685;BME280;61365;52.162;4.500;2023-08-08T09:44:57;101333.56;;;24.10;45.22
72685;BME280;61365;52.162;4.500;2023-08-08T09:47:24;101322.28;;;24.56;44.04
72685;BME280;61365;52.162;4.500;2023-08-08T09:49:59;101325.94;;;23.83;47.58
72685;BME280;61365;52.162;4.500;2023-08-08T09:52:29;101323.28;;;23.83;46.53
72685;BME280;61365;52.162;4.500;2023-08-08T09:54:56;101326.66;;;23.87;47.91
72685;BME280;61365;52.162;4.500;2023-08-08T09:57:22;101327.91;;;23.79;46.29
72685;BME280;61365;52.162;4.500;2023-08-08T09:59:49;101336.03;;;24.14;42.86
72685;BME280;61365;52.162;4.500;2023-08-08T10:02:17;101321.09;;;23.72;45.77
72685;BME280;61365;52.162;4.500;2023-08-08T10:04:47;101325.88;;;23.84;44.85
72685;BME280;61365;52.162;4.500;2023-08-08T10:07:14;101337.63;;;23.82;48.19
72685;BME280;61365;52.162;4.500;2023-08-08T10:09:40;101325.75;;;24.05;45.44
72685;BME280;61365;52.162;4.500;2023-08-08T10:12:07;101332.50;;;23.39;47.75
72685;BME280;61365;52.162;4.500;2023-08-08T10:14:35;101319.41;;;23.52;48.02
72685;BME280;61365;52.162;4.500;2023-08-08T10:17:04;101331.19;;;23.48;46.86
72685;BME280;61365;52.162;4.500;2023-08-08T10:19:32;101321.13;;;23.34;46.75
72685;BME280;61365;52.162;4.500;2023-08-08T10:21:59;101319.59;;;23.47;48.54
72685;BME280;61365;52.162;4.500;2023-08-08T10:24:35;101320.25;;;23.33;50.78
72685;BME280;61365;52.162;4.500;2023-08-08T10:27:02;101324.50;;;23.76;49.33
72685;BME280;61365;52.162;4.500;2023-08-08T10:29:30;101329.88;;;23.76;48.02
72685;BME280;61365;52.162;4.500;2023-08-08T10:32:02;101323.44;;;23.61;49.57
72685;BME280;61365;52.162;4.500;2023-08-08T10:34:38;101327.59;;;23.86;48.09
72685;BME280;61365;52.162;4.500;2023-08-08T10:37:10;101325.03;;;23.27;48.36
72685;BME280;61365;52.162;4.500;2023-08-08T10:39:48;101311.31;;;23.71;47.79
72685;BME280;61365;52.162;4.500;2023-08-08T10:42:19;101306.81;;;23.54;49.08
72685;BME280;61365;52.162;4.500;2023-08-08T10:44:53;101312.88;;;23.38;46.67
72685;BME280;61365;52.162;4.500;2023-08-08T10:47:24;101319.16;;;23.93;48.33
72685;BME280;61365;52.162;4.500;2023-08-08T10:49:58;101317.72;;;23.49;44.73
72685;BME280;61365;52.162;4.500;2023-08-08T10:52:32;101325.22;;;23.60;47.33
72685;BME280;61365;52.162;4.500;2023-08-08T10:55:03;101328.69;;;24.18;49.20
72685;BME280;61365;52.162;4.500;2023-08-08T10:57:30;101319.94;;;24.50;45.66
72685;BME280;61365;52.162;4.500;2023-08-08T11:00:15;101316.31;;;24.16;49.12
72685;BME280;61365;52.162;4.500;2023-08-08T11:02:43;101323.31;;;24.01;47.89
72685;BME280;61365;52.162;4.500;2023-08-08T11:05:10;101326.31;;;23.75;48.77
72685;BME280;61365;52.162;4.500;2023-08-08T11:07:36;101327.94;;;23.22;48.67
72685;BME280;61365;52.162;4.500;2023-08-08T11:10:03;101323.91;;;23.32;49.75
72685;BME280;61365;52.162;4.500;2023-08-08T11:12:30;101331.44;;;23.43;47.82
72685;BME280;61365;52.162;4.500;2023-08-08T11:14:56;101324.03;;;23.29;48.31
72685;BME280;61365;52.162;4.500;2023-08-08T11:17:23;101328.38;;;23.32;47.76
72685;BME280;61365;52.162;4.500;2023-08-08T11:19:50;101327.84;;;23.43;49.15
72685;BME280;61365;52.162;4.500;2023-08-08T11:22:16;101322.75;;;22.98;50.38
72685;BME280;61365;52.162;4.500;2023-08-08T11:24:43;101319.91;;;23.22;51.90
72685;BME280;61365;52.162;4.500;2023-08-08T11:27:09;101318.22;;;23.19;51.35
72685;BME280;61365;52.162;4.500;2023-08-08T11:29:35;101335.34;;;23.15;48.35
72685;BME280;61365;52.162;4.500;2023-08-08T11:32:01;101333.75;;;22.71;49.76
72685;BME280;61365;52.162;4.500;2023-08-08T11:34:32;101335.09;;;22.82;47.83
72685;BME280;61365;52.162;4.500;2023-08-08T11:36:59;101327.22;;;22.98;50.85
72685;BME280;61365;52.162;4.500;2023-08-08T11:39:26;101321.69;;;23.21;47.80
72685;BME280;61365;52.162;4.500;2023-08-08T11:41:53;101328.84;;;22.81;50.02
72685;BME280;61365;52.162;4.500;2023-08-08T11:44:20;101326.94;;;23.04;51.29
72685;BME280;61365;52.162;4.500;2023-08-08T11:46:46;101326.13;;;23.42;48.76
72685;BME280;61365;52.162;4.500;2023-08-08T11:49:13;101318.38;;;23.35;48.08
72685;BME280;61365;52.162;4.500;2023-08-08T11:51:42;101319.31;;;23.34;48.03
72685;BME280;61365;52.162;4.500;2023-08-08T11:54:09;101318.69;;;22.89;46.72
72685;BME280;61365;52.162;4.500;2023-08-08T11:56:35;101320.59;;;23.06;50.13
72685;BME280;61365;52.162;4.500;2023-08-08T11:59:02;101321.78;;;22.59;48.41
72685;BME280;61365;52.162;4.500;2023-08-08T12:01:30;101312.88;;;22.79;49.86
72685;BME280;61365;52.162;4.500;2023-08-08T12:04:03;101327.06;;;23.01;47.81
72685;BME280;61365;52.162;4.500;2023-08-08T12:06:32;101321.22;;;23.32;49.63
72685;BME280;61365;52.162;4.500;2023-08-08T12:08:58;101313.00;;;23.54;46.33
72685;BME280;61365;52.162;4.500;2023-08-08T12:11:24;101311.78;;;23.23;48.12
72685;BME280;61365;52.162;4.500;2023-08-08T12:13:50;101320.84;;;23.40;48.75
72685;BME280;61365;52.162;4.500;2023-08-08T12:16:16;101328.16;;;23.36;48.87
72685;BME280;61365;52.162;4.500;2023-08-08T12:18:43;101323.72;;;22.95;48.39
72685;BME280;61365;52.162;4.500;2023-08-08T12:21:09;101335.41;;;22.94;52.10
72685;BME280;61365;52.162;4.500;2023-08-08T12:23:35;101322.69;;;22.79;50.52
72685;BME280;61365;52.162;4.500;2023-08-08T12:26:03;101323.19;;;23.08;50.56
72685;BME280;61365;52.162;4.500;2023-08-08T12:28:33;101323.72;;;22.95;49.72
72685;BME280;61365;52.162;4.500;2023-08-08T12:31:00;101336.00;;;22.60;51.70
72685;BME280;61365;52.162;4.500;2023-08-08T12:33:27;101329.22;;;22.30;50.00
72685;BME280;61365;52.162;4.500;2023-08-08T12:35:53;101333.06;;;22.02;52.13
72685;BME280;61365;52.162;4.500;2023-08-08T12:38:19;101332.69;;;22.12;53.05
72685;BME280;61365;52.162;4.500;2023-08-08T12:40:45;101325.31;;;22.60;50.18
72685;BME280;61365;52.162;4.500;2023-08-08T12:43:11;101343.41;;;22.55;51.30
72685;BME280;61365;52.162;4.500;2023-08-08T12:45:43;101329.34;;;22.49;49.73
72685;BME280;61365;52.162;4.500;2023-08-08T12:48:11;101336.31;;;22.54;50.04
72685;BME280;61365;52.162;4.500;2023-08-08T12:50:38;101326.34;;;22.57;52.45
72685;BME280;61365;52.162;4.500;2023-08-08T12:53:04;101333.66;;;22.31;50.65